sensor_id;sensor_type;location;lat;lon;timestamp;P1;durP1;ratioP1;P2;durP2;ratioP2
13779;SDS011;6960;53.560;9.950;2022-09-09T00:00:45;747.60;;;703.97;;
13779;SDS011;6960;53.560;9.950;2022-09-09T00:03:14;727.50;;;686.00;;
13779;SDS011;6960;53.560;9.950;2022-09-09T00:08:21;834.03;;;783.07;;
13779;SDS011;6960;53.560;9.950;2022-09-09T00:10:50;781.43;;;736.30;;
13779;SDS011;6960;53.560;9.950;2022-09-09T00:16:21;770.03;;;727.07;;
13779;SDS011;6960;53.560;9.950;2022-09-09T00:19:05;792.40;;;746.63;;
13779;SDS011;6960;53.560;9.950;2022-09-09T00:21:33;815.73;;;768.50;;
13779;SDS011;6960;53.560;9.950;2022-09-09T00:24:00;916.73;;;857.50;;
13779;SDS011;6960;53.560;9.950;2022-09-09T00:31:27;821.67;;;769.73;;
13779;SDS011;6960;53.560;9.950;2022-09-09T00:33:53;819.90;;;768.33;;
13779;SDS011;6960;53.560;9.950;2022-09-09T00:36:21;798.60;;;750.50;;
13779;SDS011;6960;53.560;9.950;2022-09-09T00:38:55;790.50;;;739.43;;
13779;SDS011;6960;53.560;9.950;2022-09-09T00:43:52;898.53;;;839.40;;
13779;SDS011;6960;53.560;9.950;2022-09-09T00:48:54;730.20;;;686.70;;
13779;SDS011;6960;53.560;9.950;2022-09-09T00:51:26;1031.47;;;957.53;;
13779;SDS011;6960;53.560;9.950;2022-09-09T00:56:30;931.13;;;865.10;;
13779;SDS011;6960;53.560;9.950;2022-09-09T00:59:16;757.43;;;713.17;;
13779;SDS011;6960;53.560;9.950;2022-09-09T01:01:46;1279.57;;;999.90;;
13779;SDS011;6960;53.560;9.950;2022-09-09T01:04:13;954.17;;;888.97;;
13779;SDS011;6960;53.560;9.950;2022-09-09T01:06:41;839.23;;;786.97;;
13779;SDS011;6960;53.560;9.950;2022-09-09T01:09:22;785.97;;;735.37;;
13779;SDS011;6960;53.560;9.950;2022-09-09T01:12:38;790.50;;;742.63;;
13779;SDS011;6960;53.560;9.950;2022-09-09T01:14:39;1031.57;;;952.27;;
13779;SDS011;6960;53.560;9.950;2022-09-09T01:17:11;859.67;;;804.10;;
13779;SDS011;6960;53.560;9.950;2022-09-09T01:22:22;935.77;;;875.50;;
13779;SDS011;6960;53.560;9.950;2022-09-09T01:27:27;990.83;;;915.63;;
13779;SDS011;6960;53.560;9.950;2022-09-09T01:29:53;1116.73;;;999.90;;
13779;SDS011;6960;53.560;9.950;2022-09-09T01:35:05;844.90;;;793.60;;
13779;SDS011;6960;53.560;9.950;2022-09-09T01:37:33;930.33;;;857.07;;
13779;SDS011;6960;53.560;9.950;2022-09-09T01:39:59;872.90;;;815.23;;
13779;SDS011;6960;53.560;9.950;2022-09-09T01:42:25;753.57;;;707.03;;
13779;SDS011;6960;53.560;9.950;2022-09-09T01:44:51;712.03;;;668.60;;
13779;SDS011;6960;53.560;9.950;2022-09-09T01:47:17;928.10;;;866.67;;
13779;SDS011;6960;53.560;9.950;2022-09-09T01:49:43;962.80;;;898.83;;
13779;SDS011;6960;53.560;9.950;2022-09-09T01:52:09;954.70;;;887.03;;
13779;SDS011;6960;53.560;9.950;2022-09-09T01:54:35;842.10;;;784.57;;
13779;SDS011;6960;53.560;9.950;2022-09-09T01:59:40;844.93;;;790.87;;
13779;SDS011;6960;53.560;9.950;2022-09-09T02:07:01;991.00;;;924.57;;
13779;SDS011;6960;53.560;9.950;2022-09-09T02:09:28;979.80;;;915.90;;
13779;SDS011;6960;53.560;9.950;2022-09-09T02:12:05;1020.30;;;950.40;;
13779;SDS011;6960;53.560;9.950;2022-09-09T02:14:36;1050.40;;;977.43;;
13779;SDS011;6960;53.560;9.950;2022-09-09T02:17:05;1009.70;;;943.77;;
13779;SDS011;6960;53.560;9.950;2022-09-09T02:19:34;1012.97;;;944.57;;
13779;SDS011;6960;53.560;9.950;2022-09-09T02:22:01;1152.73;;;999.90;;
13779;SDS011;6960;53.560;9.950;2022-09-09T02:24:29;1083.93;;;998.30;;
13779;SDS011;6960;53.560;9.950;2022-09-09T02:26:55;1020.87;;;952.63;;
13779;SDS011;6960;53.560;9.950;2022-09-09T02:29:29;1034.87;;;967.20;;
13779;SDS011;6960;53.560;9.950;2022-09-09T02:31:58;1075.43;;;997.83;;
13779;SDS011;6960;53.560;9.950;2022-09-09T02:34:25;1111.37;;;999.90;;
13779;SDS011;6960;53.560;9.950;2022-09-09T02:36:53;1048.47;;;976.10;;
13779;SDS011;6960;53.560;9.950;2022-09-09T02:39:19;991.77;;;925.40;;
13779;SDS011;6960;53.560;9.950;2022-09-09T02:41:45;1042.30;;;970.97;;
13779;SDS011;6960;53.560;9.950;2022-09-09T02:44:13;953.43;;;893.80;;
13779;SDS011;6960;53.560;9.950;2022-09-09T02:49:09;967.73;;;906.20;;
13779;SDS011;6960;53.560;9.950;2022-09-09T02:51:48;992.53;;;929.53;;
13779;SDS011;6960;53.560;9.950;2022-09-09T02:54:33;1118.63;;;999.90;;
13779;SDS011;6960;53.560;9.950;2022-09-09T02:59:29;1001.27;;;936.27;;
13779;SDS011;6960;53.560;9.950;2022-09-09T03:01:56;961.57;;;899.97;;
13779;SDS011;6960;53.560;9.950;2022-09-09T03:04:22;1070.17;;;996.90;;
13779;SDS011;6960;53.560;9.950;2022-09-09T03:06:49;970.63;;;909.00;;
13779;SDS011;6960;53.560;9.950;2022-09-09T03:09:15;1006.37;;;939.50;;
13779;SDS011;6960;53.560;9.950;2022-09-09T03:11:41;1006.70;;;941.23;;
13779;SDS011;6960;53.560;9.950;2022-09-09T03:14:07;1006.57;;;941.57;;
13779;SDS011;6960;53.560;9.950;2022-09-09T03:16:33;1076.50;;;999.37;;
13779;SDS011;6960;53.560;9.950;2022-09-09T03:19:00;1032.17;;;964.33;;
13779;SDS011;6960;53.560;9.950;2022-09-09T03:21:26;992.63;;;923.47;;
13779;SDS011;6960;53.560;9.950;2022-09-09T03:23:52;1019.77;;;949.77;;
13779;SDS011;6960;53.560;9.950;2022-09-09T03:26:18;992.47;;;928.83;;
13779;SDS011;6960;53.560;9.950;2022-09-09T03:28:45;1013.77;;;945.13;;
13779;SDS011;6960;53.560;9.950;2022-09-09T03:31:11;1005.20;;;940.33;;
13779;SDS011;6960;53.560;9.950;2022-09-09T03:33:37;997.73;;;932.47;;
13779;SDS011;6960;53.560;9.950;2022-09-09T03:36:03;1063.53;;;990.67;;
13779;SDS011;6960;53.560;9.950;2022-09-09T03:38:29;1042.67;;;969.27;;
13779;SDS011;6960;53.560;9.950;2022-09-09T03:40:56;1102.30;;;999.90;;
13779;SDS011;6960;53.560;9.950;2022-09-09T03:43:23;1057.53;;;985.17;;
13779;SDS011;6960;53.560;9.950;2022-09-09T03:45:50;1015.97;;;949.10;;
13779;SDS011;6960;53.560;9.950;2022-09-09T03:48:16;1068.90;;;989.67;;
13779;SDS011;6960;53.560;9.950;2022-09-09T03:50:46;1055.93;;;980.27;;
13779;SDS011;6960;53.560;9.950;2022-09-09T03:53:13;1066.30;;;991.90;;
13779;SDS011;6960;53.560;9.950;2022-09-09T03:55:43;1078.33;;;999.80;;
13779;SDS011;6960;53.560;9.950;2022-09-09T03:58:09;1061.87;;;986.40;;
13779;SDS011;6960;53.560;9.950;2022-09-09T04:00:35;1161.83;;;999.90;;
13779;SDS011;6960;53.560;9.950;2022-09-09T04:03:01;1089.87;;;999.90;;
13779;SDS011;6960;53.560;9.950;2022-09-09T04:05:28;1022.17;;;954.47;;
13779;SDS011;6960;53.560;9.950;2022-09-09T04:07:54;1097.23;;;999.90;;
13779;SDS011;6960;53.560;9.950;2022-09-09T04:10:20;1062.63;;;991.93;;
13779;SDS011;6960;53.560;9.950;2022-09-09T04:12:46;942.00;;;883.00;;
13779;SDS011;6960;53.560;9.950;2022-09-09T04:15:12;958.00;;;900.17;;
13779;SDS011;6960;53.560;9.950;2022-09-09T04:17:38;1157.77;;;999.90;;
13779;SDS011;6960;53.560;9.950;2022-09-09T04:20:04;947.97;;;890.87;;
13779;SDS011;6960;53.560;9.950;2022-09-09T04:22:31;1064.13;;;993.20;;
13779;SDS011;6960;53.560;9.950;2022-09-09T04:24:58;999.87;;;936.23;;
13779;SDS011;6960;53.560;9.950;2022-09-09T04:27:23;1053.63;;;979.07;;
13779;SDS011;6960;53.560;9.950;2022-09-09T04:29:49;1059.47;;;986.13;;
13779;SDS011;6960;53.560;9.950;2022-09-09T04:32:15;1010.63;;;943.87;;
13779;SDS011;6960;53.560;9.950;2022-09-09T04:34:41;987.07;;;920.57;;
13779;SDS011;6960;53.560;9.950;2022-09-09T04:37:07;972.40;;;910.77;;
13779;SDS011;6960;53.560;9.950;2022-09-09T04:39:34;1082.30;;;999.90;;
13779;SDS011;6960;53.560;9.950;2022-09-09T04:42:00;1097.67;;;999.90;;
13779;SDS011;6960;53.560;9.950;2022-09-09T04:44:26;948.53;;;888.73;;
13779;SDS011;6960;53.560;9.950;2022-09-09T04:46:52;1055.43;;;983.37;;
13779;SDS011;6960;53.560;9.950;2022-09-09T04:49:18;976.17;;;905.23;;
13779;SDS011;6960;53.560;9.950;2022-09-09T04:51:44;1004.57;;;937.43;;
13779;SDS011;6960;53.560;9.950;2022-09-09T04:54:11;1104.63;;;999.90;;
13779;SDS011;6960;53.560;9.950;2022-09-09T04:56:37;1003.07;;;937.77;;
13779;SDS011;6960;53.560;9.950;2022-09-09T04:59:03;1175.10;;;999.90;;
13779;SDS011;6960;53.560;9.950;2022-09-09T05:01:30;982.63;;;918.33;;
13779;SDS011;6960;53.560;9.950;2022-09-09T05:03:57;1052.77;;;981.60;;
13779;SDS011;6960;53.560;9.950;2022-09-09T05:06:27;1119.77;;;999.90;;
13779;SDS011;6960;53.560;9.950;2022-09-09T05:08:54;970.83;;;905.77;;
13779;SDS011;6960;53.560;9.950;2022-09-09T05:11:21;873.40;;;822.67;;
13779;SDS011;6960;53.560;9.950;2022-09-09T05:13:49;912.13;;;858.63;;
13779;SDS011;6960;53.560;9.950;2022-09-09T05:16:15;987.40;;;923.07;;
13779;SDS011;6960;53.560;9.950;2022-09-09T05:18:41;950.33;;;892.23;;
13779;SDS011;6960;53.560;9.950;2022-09-09T05:21:11;993.13;;;929.77;;
13779;SDS011;6960;53.560;9.950;2022-09-09T05:23:37;1067.00;;;986.40;;
13779;SDS011;6960;53.560;9.950;2022-09-09T05:26:03;955.67;;;896.13;;
13779;SDS011;6960;53.560;9.950;2022-09-09T05:28:30;1028.47;;;961.57;;
13779;SDS011;6960;53.560;9.950;2022-09-09T05:30:59;1121.30;;;999.90;;
13779;SDS011;6960;53.560;9.950;2022-09-09T05:33:26;953.33;;;889.70;;
13779;SDS011;6960;53.560;9.950;2022-09-09T05:35:59;1012.77;;;947.17;;
13779;SDS011;6960;53.560;9.950;2022-09-09T05:38:25;1107.37;;;999.90;;
13779;SDS011;6960;53.560;9.950;2022-09-09T05:40:51;985.97;;;923.13;;
13779;SDS011;6960;53.560;9.950;2022-09-09T05:43:18;1144.73;;;999.90;;
13779;SDS011;6960;53.560;9.950;2022-09-09T05:45:45;1102.80;;;999.90;;
13779;SDS011;6960;53.560;9.950;2022-09-09T05:48:12;1007.77;;;942.77;;
13779;SDS011;6960;53.560;9.950;2022-09-09T05:50:38;1081.77;;;999.90;;
13779;SDS011;6960;53.560;9.950;2022-09-09T05:53:04;1012.53;;;947.93;;
13779;SDS011;6960;53.560;9.950;2022-09-09T05:55:30;1111.57;;;999.90;;
13779;SDS011;6960;53.560;9.950;2022-09-09T05:57:56;1111.23;;;999.90;;
13779;SDS011;6960;53.560;9.950;2022-09-09T06:00:22;1027.40;;;959.30;;
13779;SDS011;6960;53.560;9.950;2022-09-09T06:02:51;1047.77;;;973.63;;
13779;SDS011;6960;53.560;9.950;2022-09-09T06:05:18;1093.60;;;999.90;;
13779;SDS011;6960;53.560;9.950;2022-09-09T06:07:44;1081.43;;;999.90;;
13779;SDS011;6960;53.560;9.950;2022-09-09T06:10:10;1208.80;;;999.90;;
13779;SDS011;6960;53.560;9.950;2022-09-09T06:12:38;1157.27;;;999.90;;
13779;SDS011;6960;53.560;9.950;2022-09-09T06:15:04;1165.00;;;999.90;;
13779;SDS011;6960;53.560;9.950;2022-09-09T06:17:31;918.87;;;855.43;;
13779;SDS011;6960;53.560;9.950;2022-09-09T06:19:57;978.30;;;913.70;;
13779;SDS011;6960;53.560;9.950;2022-09-09T06:22:23;969.03;;;902.23;;
13779;SDS011;6960;53.560;9.950;2022-09-09T06:24:49;927.67;;;867.90;;
13779;SDS011;6960;53.560;9.950;2022-09-09T06:27:16;945.30;;;883.37;;
13779;SDS011;6960;53.560;9.950;2022-09-09T06:29:41;1120.53;;;999.90;;
13779;SDS011;6960;53.560;9.950;2022-09-09T06:32:07;766.00;;;720.40;;
13779;SDS011;6960;53.560;9.950;2022-09-09T06:34:34;760.90;;;713.07;;
13779;SDS011;6960;53.560;9.950;2022-09-09T06:37:01;743.97;;;698.93;;
13779;SDS011;6960;53.560;9.950;2022-09-09T06:39:27;783.57;;;735.57;;
13779;SDS011;6960;53.560;9.950;2022-09-09T06:41:53;933.73;;;867.93;;
13779;SDS011;6960;53.560;9.950;2022-09-09T06:44:19;1015.57;;;933.47;;
13779;SDS011;6960;53.560;9.950;2022-09-09T06:46:45;700.20;;;658.57;;
13779;SDS011;6960;53.560;9.950;2022-09-09T06:49:14;922.30;;;863.70;;
13779;SDS011;6960;53.560;9.950;2022-09-09T06:51:40;910.10;;;851.63;;
13779;SDS011;6960;53.560;9.950;2022-09-09T06:54:07;599.63;;;566.77;;
13779;SDS011;6960;53.560;9.950;2022-09-09T06:56:42;1117.33;;;999.90;;
13779;SDS011;6960;53.560;9.950;2022-09-09T06:59:11;906.13;;;848.30;;
13779;SDS011;6960;53.560;9.950;2022-09-09T07:01:38;547.00;;;517.43;;
13779;SDS011;6960;53.560;9.950;2022-09-09T07:04:06;577.93;;;546.60;;
13779;SDS011;6960;53.560;9.950;2022-09-09T07:06:35;414.77;;;396.97;;
13779;SDS011;6960;53.560;9.950;2022-09-09T07:09:05;460.40;;;438.00;;
13779;SDS011;6960;53.560;9.950;2022-09-09T07:11:32;574.17;;;544.40;;
13779;SDS011;6960;53.560;9.950;2022-09-09T07:13:59;457.70;;;436.00;;
13779;SDS011;6960;53.560;9.950;2022-09-09T07:16:25;858.70;;;799.73;;
13779;SDS011;6960;53.560;9.950;2022-09-09T07:18:52;803.10;;;746.90;;
13779;SDS011;6960;53.560;9.950;2022-09-09T07:21:22;996.77;;;909.13;;
13779;SDS011;6960;53.560;9.950;2022-09-09T07:23:49;1044.77;;;942.23;;
13779;SDS011;6960;53.560;9.950;2022-09-09T07:26:17;865.70;;;804.50;;
13779;SDS011;6960;53.560;9.950;2022-09-09T07:28:44;1022.33;;;935.70;;
13779;SDS011;6960;53.560;9.950;2022-09-09T07:31:14;947.43;;;867.53;;
13779;SDS011;6960;53.560;9.950;2022-09-09T07:33:41;1147.80;;;999.90;;
13779;SDS011;6960;53.560;9.950;2022-09-09T07:36:09;1009.33;;;913.57;;
13779;SDS011;6960;53.560;9.950;2022-09-09T07:38:41;724.07;;;673.87;;
13779;SDS011;6960;53.560;9.950;2022-09-09T07:41:10;1268.23;;;999.90;;
13779;SDS011;6960;53.560;9.950;2022-09-09T07:43:41;1624.90;;;999.90;;
13779;SDS011;6960;53.560;9.950;2022-09-09T07:46:08;1274.03;;;999.90;;
13779;SDS011;6960;53.560;9.950;2022-09-09T07:48:34;1317.80;;;999.90;;
13779;SDS011;6960;53.560;9.950;2022-09-09T07:51:19;1999.90;;;999.90;;
13779;SDS011;6960;53.560;9.950;2022-09-09T07:53:47;1999.90;;;999.90;;
13779;SDS011;6960;53.560;9.950;2022-09-09T07:56:14;1999.90;;;999.90;;
13779;SDS011;6960;53.560;9.950;2022-09-09T07:58:47;1999.90;;;999.90;;
13779;SDS011;6960;53.560;9.950;2022-09-09T08:01:15;1999.90;;;999.90;;
13779;SDS011;6960;53.560;9.950;2022-09-09T08:03:42;1999.90;;;999.90;;
13779;SDS011;6960;53.560;9.950;2022-09-09T08:06:09;1341.60;;;639.73;;
13779;SDS011;6960;53.560;9.950;2022-09-09T08:08:35;1999.90;;;999.90;;
13779;SDS011;6960;53.560;9.950;2022-09-09T08:11:07;1999.90;;;999.90;;
13779;SDS011;6960;53.560;9.950;2022-09-09T08:13:34;1999.90;;;999.90;;
13779;SDS011;6960;53.560;9.950;2022-09-09T08:16:04;1999.90;;;999.90;;
13779;SDS011;6960;53.560;9.950;2022-09-09T08:18:30;1999.90;;;999.90;;
13779;SDS011;6960;53.560;9.950;2022-09-09T08:20:56;1999.90;;;999.90;;
13779;SDS011;6960;53.560;9.950;2022-09-09T08:23:22;1999.90;;;999.90;;
13779;SDS011;6960;53.560;9.950;2022-09-09T08:25:48;1999.90;;;999.90;;
13779;SDS011;6960;53.560;9.950;2022-09-09T08:28:15;1999.90;;;999.90;;
13779;SDS011;6960;53.560;9.950;2022-09-09T08:30:41;1999.90;;;999.90;;
13779;SDS011;6960;53.560;9.950;2022-09-09T08:33:08;1639.33;;;999.90;;
13779;SDS011;6960;53.560;9.950;2022-09-09T08:35:35;1948.27;;;999.90;;
13779;SDS011;6960;53.560;9.950;2022-09-09T08:38:01;1201.60;;;999.90;;
13779;SDS011;6960;53.560;9.950;2022-09-09T08:40:28;1999.90;;;999.90;;
13779;SDS011;6960;53.560;9.950;2022-09-09T08:42:55;1999.90;;;999.90;;
13779;SDS011;6960;53.560;9.950;2022-09-09T08:45:31;1999.90;;;999.90;;
13779;SDS011;6960;53.560;9.950;2022-09-09T08:48:15;1999.90;;;999.90;;
13779;SDS011;6960;53.560;9.950;2022-09-09T08:50:44;1999.90;;;999.90;;
13779;SDS011;6960;53.560;9.950;2022-09-09T08:53:16;1999.90;;;999.90;;
13779;SDS011;6960;53.560;9.950;2022-09-09T08:55:45;1767.87;;;999.90;;
13779;SDS011;6960;53.560;9.950;2022-09-09T08:58:16;1999.90;;;999.90;;
13779;SDS011;6960;53.560;9.950;2022-09-09T09:03:15;1999.90;;;999.90;;
13779;SDS011;6960;53.560;9.950;2022-09-09T09:05:51;1999.90;;;999.90;;
13779;SDS011;6960;53.560;9.950;2022-09-09T09:08:29;1999.90;;;999.90;;
13779;SDS011;6960;53.560;9.950;2022-09-09T09:10:57;1999.90;;;999.90;;
13779;SDS011;6960;53.560;9.950;2022-09-09T09:13:32;1999.90;;;999.90;;
13779;SDS011;6960;53.560;9.950;2022-09-09T09:18:42;1999.90;;;999.90;;
13779;SDS011;6960;53.560;9.950;2022-09-09T09:21:20;1999.90;;;999.90;;
13779;SDS011;6960;53.560;9.950;2022-09-09T09:23:52;1999.90;;;999.90;;
13779;SDS011;6960;53.560;9.950;2022-09-09T09:26:21;1172.90;;;999.90;;
13779;SDS011;6960;53.560;9.950;2022-09-09T09:28:47;1182.97;;;999.90;;
13779;SDS011;6960;53.560;9.950;2022-09-09T09:31:14;1999.90;;;999.90;;
13779;SDS011;6960;53.560;9.950;2022-09-09T09:36:09;1999.90;;;999.90;;
13779;SDS011;6960;53.560;9.950;2022-09-09T09:38:35;1650.47;;;999.90;;
13779;SDS011;6960;53.560;9.950;2022-09-09T09:41:02;1900.63;;;999.90;;
13779;SDS011;6960;53.560;9.950;2022-09-09T09:43:32;1999.90;;;999.90;;
13779;SDS011;6960;53.560;9.950;2022-09-09T09:45:58;1999.90;;;999.90;;
13779;SDS011;6960;53.560;9.950;2022-09-09T09:48:25;1931.93;;;999.90;;
13779;SDS011;6960;53.560;9.950;2022-09-09T09:50:55;1578.17;;;999.90;;
13779;SDS011;6960;53.560;9.950;2022-09-09T09:53:26;1295.03;;;999.90;;
13779;SDS011;6960;53.560;9.950;2022-09-09T09:55:54;1388.97;;;999.90;;
13779;SDS011;6960;53.560;9.950;2022-09-09T09:58:20;1474.60;;;999.90;;
13779;SDS011;6960;53.560;9.950;2022-09-09T10:00:51;1999.90;;;999.90;;
13779;SDS011;6960;53.560;9.950;2022-09-09T10:03:20;1999.90;;;999.90;;
13779;SDS011;6960;53.560;9.950;2022-09-09T10:05:47;1770.03;;;999.90;;
13779;SDS011;6960;53.560;9.950;2022-09-09T10:08:14;1879.10;;;989.22;;
13779;SDS011;6960;53.560;9.950;2022-09-09T10:13:26;1999.90;;;999.90;;
13779;SDS011;6960;53.560;9.950;2022-09-09T10:18:53;1766.10;;;999.90;;
13779;SDS011;6960;53.560;9.950;2022-09-09T10:21:38;1995.57;;;999.90;;
13779;SDS011;6960;53.560;9.950;2022-09-09T10:31:55;1491.97;;;999.90;;
13779;SDS011;6960;53.560;9.950;2022-09-09T10:34:32;1403.15;;;999.90;;
13779;SDS011;6960;53.560;9.950;2022-09-09T10:37:00;1561.70;;;999.90;;
13779;SDS011;6960;53.560;9.950;2022-09-09T10:39:36;1228.93;;;999.90;;
13779;SDS011;6960;53.560;9.950;2022-09-09T10:42:14;1415.78;;;999.90;;
13779;SDS011;6960;53.560;9.950;2022-09-09T10:50:06;1257.80;;;999.90;;
13779;SDS011;6960;53.560;9.950;2022-09-09T10:52:38;1268.57;;;999.90;;
13779;SDS011;6960;53.560;9.950;2022-09-09T10:55:17;1199.40;;;999.90;;
13779;SDS011;6960;53.560;9.950;2022-09-09T10:57:48;1172.65;;;999.90;;
13779;SDS011;6960;53.560;9.950;2022-09-09T11:00:21;1149.00;;;999.90;;
13779;SDS011;6960;53.560;9.950;2022-09-09T11:02:51;1130.80;;;999.90;;
13779;SDS011;6960;53.560;9.950;2022-09-09T11:05:22;1163.53;;;999.90;;
13779;SDS011;6960;53.560;9.950;2022-09-09T11:10:40;1183.93;;;999.90;;
13779;SDS011;6960;53.560;9.950;2022-09-09T11:13:07;1218.03;;;999.90;;
13779;SDS011;6960;53.560;9.950;2022-09-09T11:15:43;1092.53;;;999.90;;
13779;SDS011;6960;53.560;9.950;2022-09-09T11:18:11;1160.63;;;999.90;;
13779;SDS011;6960;53.560;9.950;2022-09-09T11:20:39;983.20;;;909.78;;
13779;SDS011;6960;53.560;9.950;2022-09-09T11:23:09;1205.18;;;999.90;;
13779;SDS011;6960;53.560;9.950;2022-09-09T11:25:38;1191.10;;;999.90;;
13779;SDS011;6960;53.560;9.950;2022-09-09T11:30:39;1216.93;;;999.90;;
13779;SDS011;6960;53.560;9.950;2022-09-09T11:35:53;1257.93;;;999.90;;
13779;SDS011;6960;53.560;9.950;2022-09-09T11:38:27;1257.47;;;999.90;;
13779;SDS011;6960;53.560;9.950;2022-09-09T11:41:00;1087.30;;;994.08;;
13779;SDS011;6960;53.560;9.950;2022-09-09T11:43:28;929.05;;;856.28;;
13779;SDS011;6960;53.560;9.950;2022-09-09T11:45:56;1289.50;;;999.90;;
13779;SDS011;6960;53.560;9.950;2022-09-09T11:48:37;1201.65;;;999.90;;
13779;SDS011;6960;53.560;9.950;2022-09-09T11:51:05;1206.45;;;999.90;;
13779;SDS011;6960;53.560;9.950;2022-09-09T11:53:32;1254.00;;;999.90;;
13779;SDS011;6960;53.560;9.950;2022-09-09T11:58:28;1265.93;;;999.90;;
13779;SDS011;6960;53.560;9.950;2022-09-09T12:00:57;1260.37;;;999.90;;
13779;SDS011;6960;53.560;9.950;2022-09-09T12:06:41;1414.97;;;999.90;;
13779;SDS011;6960;53.560;9.950;2022-09-09T12:08:58;1519.03;;;827.37;;
13779;SDS011;6960;53.560;9.950;2022-09-09T12:11:27;1999.90;;;999.90;;
13779;SDS011;6960;53.560;9.950;2022-09-09T12:13:54;822.43;;;405.60;;
13779;SDS011;6960;53.560;9.950;2022-09-09T12:16:34;1999.90;;;999.90;;
13779;SDS011;6960;53.560;9.950;2022-09-09T12:19:04;1999.90;;;999.90;;
13779;SDS011;6960;53.560;9.950;2022-09-09T12:21:35;1999.90;;;999.90;;
13779;SDS011;6960;53.560;9.950;2022-09-09T12:24:05;1999.90;;;999.90;;
13779;SDS011;6960;53.560;9.950;2022-09-09T12:31:53;1999.90;;;999.90;;
13779;SDS011;6960;53.560;9.950;2022-09-09T12:36:57;537.03;;;504.10;;
13779;SDS011;6960;53.560;9.950;2022-09-09T12:39:35;931.90;;;864.15;;
13779;SDS011;6960;53.560;9.950;2022-09-09T12:42:03;1239.97;;;999.90;;
13779;SDS011;6960;53.560;9.950;2022-09-09T12:44:30;1318.47;;;999.90;;
13779;SDS011;6960;53.560;9.950;2022-09-09T12:46:58;1999.90;;;999.90;;
13779;SDS011;6960;53.560;9.950;2022-09-09T12:52:12;938.67;;;760.20;;
13779;SDS011;6960;53.560;9.950;2022-09-09T12:54:42;1999.90;;;999.90;;
13779;SDS011;6960;53.560;9.950;2022-09-09T12:57:10;1999.90;;;999.90;;
13779;SDS011;6960;53.560;9.950;2022-09-09T12:59:38;1999.90;;;999.90;;
13779;SDS011;6960;53.560;9.950;2022-09-09T13:04:46;1999.90;;;999.90;;
13779;SDS011;6960;53.560;9.950;2022-09-09T13:07:12;909.80;;;589.83;;
13779;SDS011;6960;53.560;9.950;2022-09-09T13:09:38;496.07;;;296.77;;
13779;SDS011;6960;53.560;9.950;2022-09-09T13:12:05;296.57;;;197.63;;
13779;SDS011;6960;53.560;9.950;2022-09-09T13:14:33;1404.23;;;726.70;;
13779;SDS011;6960;53.560;9.950;2022-09-09T13:17:02;1999.90;;;999.90;;
13779;SDS011;6960;53.560;9.950;2022-09-09T13:19:38;1999.90;;;999.90;;
13779;SDS011;6960;53.560;9.950;2022-09-09T13:22:11;1999.90;;;999.90;;
13779;SDS011;6960;53.560;9.950;2022-09-09T13:24:38;1239.87;;;712.70;;
13779;SDS011;6960;53.560;9.950;2022-09-09T13:27:05;980.83;;;554.10;;
13779;SDS011;6960;53.560;9.950;2022-09-09T13:29:51;775.50;;;707.37;;
13779;SDS011;6960;53.560;9.950;2022-09-09T13:32:20;538.13;;;289.97;;
13779;SDS011;6960;53.560;9.950;2022-09-09T13:35:22;1999.90;;;999.90;;
13779;SDS011;6960;53.560;9.950;2022-09-09T13:37:37;1492.23;;;756.50;;
13779;SDS011;6960;53.560;9.950;2022-09-09T13:40:06;583.13;;;292.63;;
13779;SDS011;6960;53.560;9.950;2022-09-09T13:42:42;1999.90;;;999.90;;
13779;SDS011;6960;53.560;9.950;2022-09-09T13:45:20;1999.90;;;999.90;;
13779;SDS011;6960;53.560;9.950;2022-09-09T13:47:47;1999.90;;;999.90;;
13779;SDS011;6960;53.560;9.950;2022-09-09T13:50:27;1999.90;;;999.90;;
13779;SDS011;6960;53.560;9.950;2022-09-09T13:52:54;1016.37;;;558.13;;
13779;SDS011;6960;53.560;9.950;2022-09-09T13:55:21;1999.90;;;999.90;;
13779;SDS011;6960;53.560;9.950;2022-09-09T13:57:51;1999.90;;;999.90;;
13779;SDS011;6960;53.560;9.950;2022-09-09T14:00:17;1999.90;;;999.90;;
13779;SDS011;6960;53.560;9.950;2022-09-09T14:02:43;1999.90;;;999.90;;
13779;SDS011;6960;53.560;9.950;2022-09-09T14:05:09;1046.23;;;562.53;;
13779;SDS011;6960;53.560;9.950;2022-09-09T14:07:36;1999.90;;;999.90;;
13779;SDS011;6960;53.560;9.950;2022-09-09T14:10:03;1999.90;;;999.90;;
13779;SDS011;6960;53.560;9.950;2022-09-09T14:12:29;1999.90;;;999.90;;
13779;SDS011;6960;53.560;9.950;2022-09-09T14:14:55;1999.90;;;999.90;;
13779;SDS011;6960;53.560;9.950;2022-09-09T14:17:21;1999.90;;;999.90;;
13779;SDS011;6960;53.560;9.950;2022-09-09T14:19:47;642.93;;;495.43;;
13779;SDS011;6960;53.560;9.950;2022-09-09T14:22:14;1999.90;;;999.90;;
13779;SDS011;6960;53.560;9.950;2022-09-09T14:24:40;1999.90;;;999.90;;
13779;SDS011;6960;53.560;9.950;2022-09-09T14:27:06;1999.90;;;999.90;;
13779;SDS011;6960;53.560;9.950;2022-09-09T14:29:32;1708.07;;;919.30;;
13779;SDS011;6960;53.560;9.950;2022-09-09T14:31:58;1017.23;;;837.67;;
13779;SDS011;6960;53.560;9.950;2022-09-09T14:34:25;1999.90;;;999.90;;
13779;SDS011;6960;53.560;9.950;2022-09-09T14:36:51;1999.90;;;999.90;;
13779;SDS011;6960;53.560;9.950;2022-09-09T14:39:17;1125.10;;;742.30;;
13779;SDS011;6960;53.560;9.950;2022-09-09T14:41:43;1999.90;;;999.90;;
13779;SDS011;6960;53.560;9.950;2022-09-09T14:44:10;1523.60;;;959.03;;
13779;SDS011;6960;53.560;9.950;2022-09-09T14:46:36;1999.90;;;999.90;;
13779;SDS011;6960;53.560;9.950;2022-09-09T14:49:02;1999.90;;;999.90;;
13779;SDS011;6960;53.560;9.950;2022-09-09T14:51:29;1999.90;;;999.90;;
13779;SDS011;6960;53.560;9.950;2022-09-09T14:53:56;1999.90;;;999.90;;
13779;SDS011;6960;53.560;9.950;2022-09-09T14:56:23;1999.90;;;999.90;;
13779;SDS011;6960;53.560;9.950;2022-09-09T14:58:49;1999.90;;;999.90;;
13779;SDS011;6960;53.560;9.950;2022-09-09T15:01:16;1999.90;;;999.90;;
13779;SDS011;6960;53.560;9.950;2022-09-09T15:03:44;1999.90;;;999.90;;
13779;SDS011;6960;53.560;9.950;2022-09-09T15:06:13;1396.47;;;910.23;;
13779;SDS011;6960;53.560;9.950;2022-09-09T15:08:40;1809.97;;;999.90;;
13779;SDS011;6960;53.560;9.950;2022-09-09T15:11:07;1999.90;;;999.90;;
13779;SDS011;6960;53.560;9.950;2022-09-09T15:13:36;1999.90;;;999.90;;
13779;SDS011;6960;53.560;9.950;2022-09-09T15:16:03;1999.90;;;999.90;;
13779;SDS011;6960;53.560;9.950;2022-09-09T15:18:29;1999.90;;;999.90;;
13779;SDS011;6960;53.560;9.950;2022-09-09T15:20:55;1999.90;;;999.90;;
13779;SDS011;6960;53.560;9.950;2022-09-09T15:23:21;1999.90;;;999.90;;
13779;SDS011;6960;53.560;9.950;2022-09-09T15:25:54;1999.90;;;999.90;;
13779;SDS011;6960;53.560;9.950;2022-09-09T15:28:21;1999.90;;;999.90;;
13779;SDS011;6960;53.560;9.950;2022-09-09T15:30:47;1999.90;;;999.90;;
13779;SDS011;6960;53.560;9.950;2022-09-09T15:33:13;1999.90;;;999.90;;
13779;SDS011;6960;53.560;9.950;2022-09-09T15:35:39;1999.90;;;999.90;;
13779;SDS011;6960;53.560;9.950;2022-09-09T15:38:05;1999.90;;;999.90;;
13779;SDS011;6960;53.560;9.950;2022-09-09T15:40:31;1999.90;;;999.90;;